WetterOnline ( http://www.wetteronline.de )

Wetter aktuell Kempten/Allgäu

Aktuelles Wetter: Kempten (705m)

6-stündlich | Neueste Meldungen
Ortszeit Temperatur Wetter
Sa, 23.02. 1:00 3.9° C bewölkt
Fr, 22.02. 19:00 4.0° C bedeckt
Fr, 22.02. 13:00 5.3° C Regen
Fr, 22.02. 7:00 4.7° C Regen
Fr, 22.02. 1:00 4.5° C bedeckt
Do, 21.02. 19:00 8.4° C bewölkt
Do, 21.02. 13:00 10.7° C wolkig
Do, 21.02. 7:00 -1.1° C leicht bewölkt
Ortszeit Temperatur Wetter
Sa, 23.02. 1:00 3.9° C bewölkt
Sa, 23.02. 0:40 3.7° C wolkig
Sa, 23.02. 0:30 3.6° C leicht bewölkt
Sa, 23.02. 0:20 3.6° C leicht bewölkt
Sa, 23.02. 0:10 3.6° C wolkig
Sa, 23.02. 0:00 3.1° C fast wolkenlos
Fr, 22.02. 23:50 3.1° C wolkenlos
Fr, 22.02. 23:30 3.3° C wolkenlos
Fr, 22.02. 23:00 3.2° C wolkenlos
Fr, 22.02. 22:30 1.6° C wolkenlos
Fr, 22.02. 22:00 1.3° C fast wolkenlos
Fr, 22.02. 21:30 2.0° C fast wolkenlos
Ortszeit Relative Feuchte Sichtweite
Sa, 23.02. 1:00 87% 10 km
Fr, 22.02. 19:00 94% 3.7 km
Fr, 22.02. 13:00 94% 2.0 km
Fr, 22.02. 7:00 88% 7 km
Fr, 22.02. 1:00 74% 23 km
Do, 21.02. 19:00 53% 28 km
Do, 21.02. 13:00 45% 9 km
Do, 21.02. 7:00 87% 19 km
Ortszeit Relative Feuchte Sichtweite
Sa, 23.02. 1:00 87% 10 km
Sa, 23.02. 0:40 90% -
Sa, 23.02. 0:30 91% 7 km
Sa, 23.02. 0:20 91% -
Sa, 23.02. 0:10 92% -
Sa, 23.02. 0:00 92% 7 km
Fr, 22.02. 23:50 92% -
Fr, 22.02. 23:30 93% 7 km
Fr, 22.02. 23:00 96% 5.0 km
Fr, 22.02. 22:30 98% 2.9 km
Fr, 22.02. 22:00 94% 3.3 km
Fr, 22.02. 21:30 96% 3.7 km
Ortszeit Niederschlagsmenge Niederschlagsart
Sa, 23.02. 1:00 0.0 l/m2 in 6 Std. -
Fr, 22.02. 19:00 2 l/m2 in 12 Std. -
Fr, 22.02. 13:00 2 l/m2 in 6 Std. Regen
Fr, 22.02. 7:00 1 l/m2 in 12 Std. Regen
Fr, 22.02. 1:00 0.0 l/m2 in 6 Std. -
Do, 21.02. 19:00 0.0 l/m2 in 12 Std. -
Do, 21.02. 13:00 0.0 l/m2 in 6 Std. -
Do, 21.02. 7:00 0.0 l/m2 in 12 Std. -
Ortszeit Niederschlagsmenge Niederschlagsart
Sa, 23.02. 1:00 0.0 l/m2 in 1 Std. -
Sa, 23.02. 0:40 keine Meldung -
Sa, 23.02. 0:30 0.0 l/m2 in 1 Std. -
Sa, 23.02. 0:20 keine Meldung -
Sa, 23.02. 0:10 keine Meldung -
Sa, 23.02. 0:00 0.0 l/m2 in 1 Std. -
Fr, 22.02. 23:50 keine Meldung -
Fr, 22.02. 23:30 0.0 l/m2 in 1 Std. -
Fr, 22.02. 23:00 0.0 l/m2 in 1 Std. -
Fr, 22.02. 22:30 0.0 l/m2 in 1 Std. -
Fr, 22.02. 22:00 0.0 l/m2 in 1 Std. -
Fr, 22.02. 21:30 0.0 l/m2 in 1 Std. -
Ortszeit Stärke Spitze Richtung
km/h Bft. km/h Grad Sektor
Sa, 23.02. 1:00 13 3 28 90° O
Fr, 22.02. 19:00 4 1 11 90° O
Fr, 22.02. 13:00 4 1 18 110° O
Fr, 22.02. 7:00 7 2 18 210° SW
Fr, 22.02. 1:00 4 1 11 140° SO
Do, 21.02. 19:00 7 2 25 220° SW
Do, 21.02. 13:00 4 1 14 150° SO
Do, 21.02. 7:00 6 1 13 130° SO
Ortszeit Stärke Spitze Richtung
km/h Bft. km/h Grad Sektor
Sa, 23.02. 1:00 13 3 28 90° O
Sa, 23.02. 0:40 9 2 - 80° O
Sa, 23.02. 0:30 11 2 22 90° O
Sa, 23.02. 0:20 11 2 - 90° O
Sa, 23.02. 0:10 9 2 - 80° O
Sa, 23.02. 0:00 6 1 20 70° O
Fr, 22.02. 23:50 6 1 - 70° O
Fr, 22.02. 23:30 7 2 14 80° O
Fr, 22.02. 23:00 4 1 11 40° NO
Fr, 22.02. 22:30 4 1 7 350° N
Fr, 22.02. 22:00 4 1 7 10° N
Fr, 22.02. 21:30 4 1 4 20° N
Ortszeit Untergrenze Bedeckung Gattung
total tief tief mittel hoch
Sa, 23.02. 1:00 300 m 7/8 7/8 - - -
Fr, 22.02. 19:00 810 m 8/8 8/8 - - -
Fr, 22.02. 13:00 150 m 8/8 8/8 - - -
Fr, 22.02. 7:00 750 m 8/8 8/8 - - -
Fr, 22.02. 1:00 1800 m 8/8 8/8 - - -
Do, 21.02. 19:00 1800 m 8/8 7/8 - - -
Do, 21.02. 13:00 5400 m 8/8 8/8 - - -
Do, 21.02. 7:00 10500 m 6/8 0/8 - - -
Ortszeit Bedeckungsgrad in Achtel und Wolkenuntergrenze
Sa, 23.02. 1:00 7(300m)
Sa, 23.02. 0:40 5(270m)
Sa, 23.02. 0:30 3(240m) 3(600m)
Sa, 23.02. 0:20 3(240m) 3(600m)
Sa, 23.02. 0:10 4(240m) 5(600m)
Sa, 23.02. 0:00 3(240m)
Fr, 22.02. 23:50 keine Wolken
Fr, 22.02. 23:30 keine Wolken
Fr, 22.02. 23:00 keine Wolken
Fr, 22.02. 22:30 keine Wolken
Fr, 22.02. 22:00 1(540m)
Fr, 22.02. 21:30 1(480m)
Ortszeit Luftdruck NN (hPa) Tendenz (hPa in 3 Std.)
Sa, 23.02. 1:00 1037 - 0,2
Fr, 22.02. 19:00 1037 + 1,0
Fr, 22.02. 13:00 1035 + 0,8
Fr, 22.02. 7:00 1033 + 0,8
Fr, 22.02. 1:00 1032 + 0,5
Do, 21.02. 19:00 1029 + 0,8
Do, 21.02. 13:00 1028 - 0,3
Do, 21.02. 7:00 1032 + 0,5
Ortszeit Luftdruck NN (hPa) Tendenz (hPa in 3 Std.)
Sa, 23.02. 1:00 1037 - 0,2
Sa, 23.02. 0:40 1038 keine Meldung
Sa, 23.02. 0:30 1037 - 0,1
Sa, 23.02. 0:20 1037 keine Meldung
Sa, 23.02. 0:10 1038 keine Meldung
Sa, 23.02. 0:00 1038 0,0
Fr, 22.02. 23:50 1038 keine Meldung
Fr, 22.02. 23:30 1038 + 0,4
Fr, 22.02. 23:00 1038 + 0,3
Fr, 22.02. 22:30 1038 + 0,4
Fr, 22.02. 22:00 1039 + 0,5
Fr, 22.02. 21:30 1038 + 0,6
Ortszeit Schneehöhe (cm)
Sa, 23.02. 1:00 0
Fr, 22.02. 19:00 0
Fr, 22.02. 13:00 0
Fr, 22.02. 7:00 0
Fr, 22.02. 1:00 0
Do, 21.02. 19:00 0
Do, 21.02. 13:00 5
Do, 21.02. 7:00 6
Ortszeit Schneehöhe (cm)
Sa, 23.02. 1:00 0
Sa, 23.02. 0:40 0
Sa, 23.02. 0:30 0
Sa, 23.02. 0:20 0
Sa, 23.02. 0:10 0
Sa, 23.02. 0:00 0
Fr, 22.02. 23:50 0
Fr, 22.02. 23:30 0
Fr, 22.02. 23:00 0
Fr, 22.02. 22:30 0
Fr, 22.02. 22:00 0
Fr, 22.02. 21:30 0
Link zu dieser Seite / Seite empfehlen

Das Wetter in ...